Time;durP1;ratioP1;P1;durP2;ratioP2;P2;SDS_P1;SDS_P2;PMS_P1;PMS_P2;Temp;Humidity;BMP_temperature;BMP_pressure;BME280_temperature;BME280_humidity;BME280_pressure;Samples;Min_cycle;Max_cycle;Signal;HPM_P1;HPM_P2
2021/11/09 00:00:07;;;;;;;17.55;8.63;;;12.60;75.80;;;;;;4973433;28;20031;-77
2021/11/09 00:02:33;;;;;;;15.55;8.82;;;12.60;75.60;;;;;;4973727;28;20046;-77
2021/11/09 00:05:00;;;;;;;17.10;9.27;;;12.60;75.60;;;;;;4972102;28;20484;-77
2021/11/09 00:07:36;;;;;;;18.50;8.98;;;12.60;75.30;;;;;;4971774;28;20026;-77
2021/11/09 00:10:07;;;;;;;16.85;8.75;;;12.50;75.30;;;;;;4957542;28;20049;-78
2021/11/09 00:12:39;;;;;;;13.90;8.68;;;12.50;76.00;;;;;;4972503;28;20106;-77
2021/11/09 00:15:08;;;;;;;22.03;9.83;;;12.50;75.80;;;;;;4971402;28;20035;-77
2021/11/09 00:17:35;;;;;;;12.40;8.10;;;12.50;75.80;;;;;;4971659;28;20341;-77
2021/11/09 00:20:01;;;;;;;16.75;8.68;;;12.50;75.80;;;;;;4971511;28;20035;-76
2021/11/09 00:22:27;;;;;;;15.10;9.07;;;12.40;75.90;;;;;;4971361;28;20019;-77
2021/11/09 00:24:54;;;;;;;15.23;8.48;;;12.40;76.00;;;;;;4967799;28;20102;-77
2021/11/09 00:27:20;;;;;;;15.90;8.30;;;12.40;76.00;;;;;;4967676;28;20030;-77
2021/11/09 00:29:47;;;;;;;16.35;8.07;;;12.40;76.10;;;;;;4970894;28;20085;-77
2021/11/09 00:32:14;;;;;;;13.80;8.20;;;12.30;76.30;;;;;;4971592;28;20034;-77
2021/11/09 00:34:40;;;;;;;15.75;8.57;;;12.30;76.30;;;;;;4971170;28;20058;-77
2021/11/09 00:37:06;;;;;;;17.98;8.98;;;12.30;76.30;;;;;;4971201;28;20402;-77
2021/11/09 00:39:32;;;;;;;15.85;8.00;;;12.30;76.40;;;;;;4972213;28;20015;-77
2021/11/09 00:41:59;;;;;;;14.30;7.43;;;12.30;76.60;;;;;;4975959;28;20019;-78
2021/11/09 00:44:26;;;;;;;16.88;8.50;;;12.30;76.60;;;;;;4973228;28;20027;-77
2021/11/09 00:46:52;;;;;;;13.63;7.97;;;12.30;76.90;;;;;;4971352;28;20029;-77
2021/11/09 00:49:20;;;;;;;13.82;7.53;;;12.30;76.60;;;;;;4970663;28;20054;-76
2021/11/09 00:51:46;;;;;;;15.50;7.63;;;12.30;76.50;;;;;;4953860;28;20042;-77
2021/11/09 00:54:14;;;;;;;15.15;8.18;;;12.20;76.40;;;;;;4966943;28;20033;-77
2021/11/09 00:56:39;;;;;;;13.05;8.13;;;12.30;76.80;;;;;;4971315;28;20089;-77
2021/11/09 00:59:07;;;;;;;15.02;8.13;;;12.20;76.80;;;;;;4969885;28;20030;-76
2021/11/09 01:01:33;;;;;;;13.93;8.63;;;12.20;76.80;;;;;;4950353;28;20129;-77
2021/11/09 01:03:59;;;;;;;17.08;8.70;;;12.20;76.80;;;;;;4964891;28;20105;-77
2021/11/09 01:06:25;;;;;;;12.75;7.75;;;12.20;77.00;;;;;;4961170;28;20135;-76
2021/11/09 01:08:51;;;;;;;13.52;8.15;;;12.20;77.20;;;;;;4971706;28;20039;-77
2021/11/09 01:11:18;;;;;;;17.40;8.02;;;12.20;77.30;;;;;;4970484;28;20066;-77
2021/11/09 01:13:44;;;;;;;14.38;7.68;;;12.20;77.20;;;;;;4970467;28;20039;-77
2021/11/09 01:16:10;;;;;;;16.40;7.88;;;12.20;77.20;;;;;;4970779;28;20059;-77
2021/11/09 01:18:40;;;;;;;14.05;7.95;;;12.20;77.20;;;;;;4971364;28;20059;-76
2021/11/09 01:21:06;;;;;;;15.70;7.85;;;12.20;78.40;;;;;;4971763;28;20037;-76
2021/11/09 01:23:33;;;;;;;13.73;7.97;;;12.20;77.30;;;;;;4970497;28;20018;-77
2021/11/09 01:26:00;;;;;;;14.50;8.02;;;12.20;77.50;;;;;;4971597;28;20118;-76
2021/11/09 01:28:26;;;;;;;14.30;8.30;;;12.20;77.60;;;;;;4974732;28;20525;-77
2021/11/09 01:30:52;;;;;;;13.93;8.85;;;12.20;77.30;;;;;;4974698;28;20055;-76
2021/11/09 01:33:18;;;;;;;16.65;9.48;;;12.20;77.50;;;;;;4976224;28;20030;-76
2021/11/09 01:35:45;;;;;;;15.15;8.73;;;12.10;77.50;;;;;;4974059;28;20086;-76
2021/11/09 01:38:11;;;;;;;18.13;8.85;;;12.20;77.40;;;;;;4955356;28;20436;-77
2021/11/09 01:40:38;;;;;;;15.48;8.43;;;12.20;77.70;;;;;;4974908;28;20106;-77
2021/11/09 01:43:05;;;;;;;16.33;8.80;;;12.30;77.90;;;;;;4981688;28;20490;-76
2021/11/09 01:45:31;;;;;;;13.88;8.25;;;12.30;77.80;;;;;;4975847;28;20042;-76
2021/11/09 01:47:57;;;;;;;16.33;8.50;;;12.30;77.70;;;;;;4974661;28;20653;-77
2021/11/09 01:50:27;;;;;;;16.30;8.05;;;12.30;77.50;;;;;;4959874;28;20134;-77
2021/11/09 01:52:53;;;;;;;13.23;8.43;;;12.20;77.40;;;;;;4966829;28;20015;-77
2021/11/09 01:55:22;;;;;;;12.80;8.10;;;12.20;77.60;;;;;;4974547;28;20414;-77
2021/11/09 01:57:48;;;;;;;13.85;8.77;;;12.20;78.00;;;;;;4973631;28;20085;-77
2021/11/09 02:00:20;;;;;;;16.60;8.63;;;12.20;77.80;;;;;;4976288;28;20035;-77
2021/11/09 02:02:46;;;;;;;15.38;7.90;;;12.30;78.00;;;;;;4956419;28;20031;-77
2021/11/09 02:05:14;;;;;;;15.68;7.90;;;12.30;78.30;;;;;;4969000;28;20077;-77
2021/11/09 02:07:44;;;;;;;14.88;9.20;;;12.30;78.20;;;;;;4974058;28;20113;-77
2021/11/09 02:10:11;;;;;;;16.15;8.70;;;12.30;77.80;;;;;;4973918;28;20023;-77
2021/11/09 02:12:37;;;;;;;17.40;9.80;;;12.20;78.30;;;;;;4974594;28;20058;-76
2021/11/09 02:15:03;;;;;;;15.57;9.20;;;12.20;77.80;;;;;;4974823;28;20026;-77
2021/11/09 02:17:29;;;;;;;20.10;9.63;;;12.20;78.30;;;;;;4955505;28;20027;-77
2021/11/09 02:19:55;;;;;;;16.33;9.75;;;12.20;78.10;;;;;;4973581;28;20061;-77
2021/11/09 02:22:21;;;;;;;18.83;9.57;;;12.20;78.00;;;;;;4973853;28;20038;-77
2021/11/09 02:24:47;;;;;;;15.13;9.55;;;12.20;77.90;;;;;;4974153;28;20030;-77
2021/11/09 02:27:13;;;;;;;19.05;9.63;;;12.20;78.20;;;;;;4975334;28;20050;-76
2021/11/09 02:29:41;;;;;;;18.13;9.48;;;12.20;78.10;;;;;;4954583;28;20077;-77
2021/11/09 02:32:07;;;;;;;14.77;9.13;;;12.20;78.20;;;;;;4973150;28;20447;-76
2021/11/09 02:34:33;;;;;;;18.50;9.95;;;12.20;78.40;;;;;;4973470;28;20086;-76
2021/11/09 02:40:10;;;;;;;17.40;9.80;;;12.10;78.30;;;;;;4991551;28;20112;-76
2021/11/09 02:42:40;;;;;;;16.30;9.68;;;12.10;78.30;;;;;;4994330;28;20038;-75
2021/11/09 02:45:15;;;;;;;19.10;9.80;;;12.10;78.30;;;;;;4994372;28;20061;-76
2021/11/09 02:47:48;;;;;;;15.70;9.88;;;12.00;77.70;;;;;;4995259;28;20026;-76
2021/11/09 02:50:16;;;;;;;14.30;9.20;;;12.00;78.00;;;;;;4993700;28;20062;-76
2021/11/09 02:55:42;;;;;;;15.48;8.75;;;12.00;78.70;;;;;;4995524;28;20072;-76
2021/11/09 02:58:21;;;;;;;16.63;9.02;;;12.00;78.10;;;;;;4994042;28;20033;-76
2021/11/09 03:03:39;;;;;;;15.10;8.07;;;12.10;78.70;;;;;;4993803;28;20093;-76
2021/11/09 03:06:23;;;;;;;13.63;8.18;;;12.10;78.50;;;;;;4993793;28;20110;-75
2021/11/09 03:09:05;;;;;;;18.15;9.32;;;12.20;78.30;;;;;;4993600;28;20026;-76
2021/11/09 03:11:33;;;;;;;14.48;9.05;;;12.10;78.00;;;;;;4993611;28;20042;-75
2021/11/09 03:13:59;;;;;;;14.10;8.25;;;12.10;78.40;;;;;;4996485;28;20026;-75
2021/11/09 03:16:27;;;;;;;16.95;9.05;;;12.10;78.40;;;;;;4992000;28;20037;-78
2021/11/09 03:19:12;;;;;;;19.00;9.25;;;12.10;78.40;;;;;;4993392;28;20632;-75
2021/11/09 03:46:40;;;;;;;11.68;7.72;;;12.10;78.50;;;;;;4992849;28;20383;-77
2021/11/09 03:49:07;;;;;;;13.15;8.57;;;12.10;78.70;;;;;;4991954;28;20029;-77
2021/11/09 03:51:34;;;;;;;14.48;8.00;;;12.10;78.60;;;;;;4992523;28;20045;-77
2021/11/09 03:54:02;;;;;;;17.00;8.48;;;12.10;78.40;;;;;;4993025;28;20024;-77
2021/11/09 03:56:42;;;;;;;16.88;9.30;;;12.10;78.40;;;;;;4992151;28;20035;-78
2021/11/09 03:59:13;;;;;;;16.27;8.45;;;12.10;78.40;;;;;;4992548;28;20088;-77
2021/11/09 04:01:59;;;;;;;13.38;7.65;;;12.00;78.60;;;;;;4992559;28;20034;-78
2021/11/09 04:07:02;;;;;;;13.30;7.50;;;12.10;78.70;;;;;;4992123;28;20455;-77
2021/11/09 04:09:38;;;;;;;12.93;7.22;;;12.10;78.50;;;;;;4977574;28;20025;-77
2021/11/09 04:12:18;;;;;;;14.38;7.60;;;12.10;78.50;;;;;;4992361;28;20073;-77
2021/11/09 04:14:53;;;;;;;12.82;7.38;;;12.10;78.80;;;;;;4992357;28;20072;-78
2021/11/09 04:19:50;;;;;;;14.02;7.53;;;11.90;78.50;;;;;;4992088;28;20038;-77
2021/11/09 04:23:12;;;;;;;13.38;7.40;;;11.90;78.70;;;;;;4974744;28;20030;-77
2021/11/09 04:28:08;;;;;;;11.52;6.75;;;11.90;78.80;;;;;;4992126;28;20129;-77
2021/11/09 04:39:20;;;;;;;17.52;7.43;;;11.80;79.10;;;;;;4991973;28;20054;-76
2021/11/09 04:42:30;;;;;;;14.30;7.43;;;11.80;79.10;;;;;;4991959;28;20034;-77
2021/11/09 04:50:21;;;;;;;11.45;7.28;;;11.70;79.10;;;;;;4990934;28;20121;-77
2021/11/09 05:09:24;;;;;;;13.15;8.43;;;11.30;80.00;;;;;;4950942;29;20036;-77
2021/11/09 05:11:49;;;;;;;12.13;7.80;;;11.30;80.30;;;;;;4951128;29;20039;-76
2021/11/09 05:14:16;;;;;;;15.65;7.95;;;11.20;80.30;;;;;;4950353;28;20046;-77
2021/11/09 05:16:42;;;;;;;14.45;7.95;;;11.20;80.40;;;;;;4950833;29;20042;-77
2021/11/09 05:19:09;;;;;;;15.00;8.80;;;11.20;80.00;;;;;;4950332;29;20118;-76
2021/11/09 05:21:37;;;;;;;15.55;9.05;;;11.20;80.00;;;;;;4950589;29;20030;-77
2021/11/09 05:24:03;;;;;;;15.20;9.10;;;11.10;79.90;;;;;;4951041;29;20019;-77
2021/11/09 05:26:29;;;;;;;16.80;9.38;;;11.00;80.50;;;;;;4950998;29;20040;-76
2021/11/09 05:28:55;;;;;;;16.23;9.70;;;11.10;81.20;;;;;;4950280;29;20035;-77
2021/11/09 05:31:21;;;;;;;15.77;8.95;;;11.00;80.80;;;;;;4950203;29;20043;-76
2021/11/09 05:33:49;;;;;;;16.33;8.93;;;11.00;80.80;;;;;;4950486;29;20496;-77
2021/11/09 05:36:15;;;;;;;14.05;8.90;;;11.00;81.00;;;;;;4950403;29;20056;-77
2021/11/09 05:38:51;;;;;;;16.20;8.80;;;11.10;80.90;;;;;;4955794;28;20047;-77
2021/11/09 05:41:18;;;;;;;12.52;7.80;;;11.10;80.50;;;;;;4990293;28;20065;-77
2021/11/09 05:43:44;;;;;;;13.82;8.77;;;11.00;80.80;;;;;;4990934;28;20036;-76
2021/11/09 05:46:10;;;;;;;16.50;8.60;;;11.10;81.40;;;;;;4991128;28;20043;-77
2021/11/09 05:48:37;;;;;;;13.40;8.02;;;11.00;80.60;;;;;;4990198;28;20050;-77
2021/11/09 05:51:04;;;;;;;12.93;8.48;;;11.00;80.60;;;;;;4991199;28;20042;-77
2021/11/09 05:53:30;;;;;;;14.20;8.52;;;11.00;80.50;;;;;;4992101;28;20098;-77
2021/11/09 05:55:57;;;;;;;13.68;8.02;;;11.00;80.60;;;;;;4981925;28;20046;-77
2021/11/09 05:58:23;;;;;;;14.00;8.05;;;10.90;80.30;;;;;;4983093;28;20533;-77
2021/11/09 06:00:48;;;;;;;15.32;8.38;;;11.00;80.50;;;;;;4991463;28;20109;-77
2021/11/09 06:03:14;;;;;;;13.15;8.55;;;10.90;80.20;;;;;;4990987;28;20026;-76
2021/11/09 06:05:40;;;;;;;12.93;8.40;;;10.90;80.40;;;;;;4991485;28;20050;-77
2021/11/09 06:08:06;;;;;;;14.60;9.23;;;10.80;79.90;;;;;;4990577;28;20089;-77
2021/11/09 06:10:32;;;;;;;18.75;9.45;;;10.80;80.20;;;;;;4990835;28;20034;-76
2021/11/09 06:12:58;;;;;;;14.93;8.70;;;10.70;80.20;;;;;;4993150;28;20530;-77
2021/11/09 06:15:24;;;;;;;16.20;8.57;;;10.70;80.90;;;;;;4994225;28;20410;-76
2021/11/09 06:17:49;;;;;;;12.90;8.40;;;10.70;80.30;;;;;;4994983;28;20395;-76
2021/11/09 06:20:15;;;;;;;13.75;8.80;;;10.60;81.30;;;;;;4994274;28;20038;-76
2021/11/09 06:22:41;;;;;;;14.90;9.40;;;10.60;80.20;;;;;;4994203;28;20071;-77
2021/11/09 06:25:08;;;;;;;12.60;8.23;;;10.50;81.20;;;;;;4994638;28;20038;-77
2021/11/09 06:27:33;;;;;;;15.68;8.82;;;10.50;80.80;;;;;;4994286;28;20040;-77
2021/11/09 06:30:00;;;;;;;15.70;9.20;;;10.50;80.60;;;;;;4973641;28;20133;-77
2021/11/09 06:32:25;;;;;;;14.60;8.70;;;10.30;80.10;;;;;;4994641;28;20081;-78
2021/11/09 06:34:51;;;;;;;11.75;8.40;;;10.30;80.60;;;;;;4993806;28;20031;-77
2021/11/09 06:37:17;;;;;;;13.95;8.50;;;10.30;81.50;;;;;;4994046;28;20082;-77
2021/11/09 06:39:43;;;;;;;15.45;8.43;;;10.40;81.20;;;;;;4993854;28;20058;-77
2021/11/09 06:42:09;;;;;;;15.57;8.23;;;10.40;81.00;;;;;;4994763;28;20484;-76
2021/11/09 06:44:35;;;;;;;14.75;8.52;;;10.30;80.70;;;;;;4994214;28;20029;-74
2021/11/09 06:47:01;;;;;;;12.18;8.02;;;10.30;81.00;;;;;;4993826;28;20537;-75
2021/11/09 06:49:26;;;;;;;13.85;8.60;;;10.40;81.10;;;;;;4993985;28;20482;-76
2021/11/09 06:51:52;;;;;;;14.07;8.25;;;10.40;80.80;;;;;;4994070;28;20113;-79
2021/11/09 06:54:17;;;;;;;10.57;7.65;;;10.40;80.80;;;;;;4976353;28;20790;-77
2021/11/09 06:56:44;;;;;;;14.63;8.57;;;10.30;80.60;;;;;;4994676;28;20123;-81
2021/11/09 06:59:09;;;;;;;13.70;8.32;;;10.30;80.70;;;;;;4993064;28;20125;-79
2021/11/09 07:01:35;;;;;;;11.10;8.02;;;10.30;80.60;;;;;;4989541;28;20687;-79
2021/11/09 07:04:02;;;;;;;12.02;7.78;;;10.30;80.50;;;;;;4989907;28;20034;-78
2021/11/09 07:06:28;;;;;;;11.80;7.85;;;10.30;80.80;;;;;;4986672;28;20021;-80
2021/11/09 07:08:54;;;;;;;11.35;8.10;;;10.30;80.50;;;;;;4982560;28;20518;-81
2021/11/09 07:11:20;;;;;;;14.45;8.13;;;10.30;80.50;;;;;;4978995;28;20039;-81
2021/11/09 07:13:46;;;;;;;13.90;8.48;;;10.30;80.30;;;;;;4990812;28;20116;-83
2021/11/09 07:16:13;;;;;;;12.38;8.13;;;10.30;80.20;;;;;;4993435;28;20034;-81
2021/11/09 07:18:39;;;;;;;11.25;8.07;;;10.30;80.30;;;;;;4988541;28;20086;-77
2021/11/09 07:21:05;;;;;;;10.77;8.20;;;10.30;80.30;;;;;;4991135;28;20018;-77
2021/11/09 07:23:31;;;;;;;14.57;8.02;;;10.30;80.30;;;;;;4992786;28;20105;-77
2021/11/09 07:25:56;;;;;;;13.35;7.93;;;10.30;80.10;;;;;;4993049;28;20058;-77
2021/11/09 07:28:22;;;;;;;15.93;8.15;;;10.30;80.40;;;;;;4992756;28;20026;-78
2021/11/09 07:31:03;;;;;;;14.05;8.10;;;10.40;80.80;;;;;;4993345;28;20033;-76
2021/11/09 07:33:29;;;;;;;13.63;8.10;;;10.50;80.60;;;;;;4977978;28;20061;-77
2021/11/09 07:35:56;;;;;;;12.95;7.80;;;10.50;80.20;;;;;;4993742;28;20022;-77
2021/11/09 07:38:22;;;;;;;12.57;8.65;;;10.60;80.40;;;;;;4992746;28;20061;-77
2021/11/09 07:40:48;;;;;;;16.58;8.25;;;10.80;80.40;;;;;;4992096;28;20482;-77
2021/11/09 07:43:15;;;;;;;14.30;7.90;;;10.90;80.30;;;;;;4992429;28;20057;-78
2021/11/09 07:45:41;;;;;;;16.27;8.75;;;11.10;78.90;;;;;;4992745;28;20324;-77
2021/11/09 07:48:08;;;;;;;13.23;7.85;;;11.10;78.00;;;;;;4992544;28;20517;-78
2021/11/09 07:50:34;;;;;;;12.13;8.07;;;11.00;78.30;;;;;;4991655;28;20038;-77
2021/11/09 07:53:02;;;;;;;11.95;7.72;;;10.80;77.80;;;;;;4990884;28;20030;-77
2021/11/09 07:55:31;;;;;;;15.10;7.80;;;10.80;78.40;;;;;;4992451;28;20423;-77
2021/11/09 07:58:00;;;;;;;12.23;7.68;;;10.80;78.10;;;;;;4992527;28;20117;-77
2021/11/09 08:00:32;;;;;;;11.93;8.02;;;10.70;78.50;;;;;;4977353;28;20026;-77
2021/11/09 08:05:33;;;;;;;17.17;8.15;;;10.60;78.40;;;;;;4991962;28;20505;-77
2021/11/09 08:08:21;;;;;;;13.23;7.85;;;10.50;78.30;;;;;;4992640;28;20157;-77
2021/11/09 08:10:48;;;;;;;14.07;7.90;;;10.50;78.80;;;;;;4992246;28;20038;-77
2021/11/09 08:13:14;;;;;;;13.13;7.72;;;10.50;78.80;;;;;;4974165;28;20379;-76
2021/11/09 08:15:40;;;;;;;16.00;8.32;;;10.50;78.50;;;;;;4992667;28;20037;-77
2021/11/09 08:18:06;;;;;;;13.35;8.32;;;10.50;79.10;;;;;;4992277;28;20109;-76
2021/11/09 08:20:31;;;;;;;10.80;7.57;;;10.50;79.20;;;;;;4992509;28;20450;-76
2021/11/09 08:22:57;;;;;;;13.85;7.50;;;10.60;79.30;;;;;;4991610;28;20034;-78
2021/11/09 08:25:23;;;;;;;10.82;6.97;;;10.70;78.90;;;;;;4992346;28;20018;-77
2021/11/09 08:27:49;;;;;;;11.52;8.18;;;10.70;78.50;;;;;;4991827;28;20030;-80
2021/11/09 08:30:15;;;;;;;11.52;7.93;;;10.50;77.80;;;;;;4991937;28;20026;-76
2021/11/09 08:32:42;;;;;;;12.40;8.05;;;10.30;78.10;;;;;;4992664;28;20047;-77
2021/11/09 08:35:10;;;;;;;12.00;8.07;;;10.30;78.40;;;;;;4980790;28;20403;-77
2021/11/09 08:37:36;;;;;;;13.48;7.57;;;10.20;78.90;;;;;;4985901;28;20034;-77
2021/11/09 08:40:09;;;;;;;11.10;7.55;;;10.30;79.40;;;;;;4991741;28;20069;-78
2021/11/09 08:42:39;;;;;;;11.32;7.35;;;10.20;79.00;;;;;;4992076;28;20117;-77
2021/11/09 08:45:10;;;;;;;14.55;8.05;;;10.30;79.70;;;;;;4992032;28;20030;-77
2021/11/09 08:47:40;;;;;;;11.63;7.40;;;10.30;80.30;;;;;;4994392;28;20030;-78
2021/11/09 08:50:06;;;;;;;12.32;7.22;;;10.50;80.70;;;;;;4974450;28;20065;-77
2021/11/09 08:52:33;;;;;;;13.30;7.85;;;10.70;80.40;;;;;;4992144;28;20018;-76
2021/11/09 09:05:24;;;;;;;13.15;7.10;;;11.10;78.50;;;;;;4991800;28;20582;-76
2021/11/09 09:07:51;;;;;;;13.40;7.57;;;11.20;78.80;;;;;;4991465;28;20041;-76
2021/11/09 09:10:17;;;;;;;11.68;6.90;;;11.30;77.90;;;;;;4989957;28;20034;-77
2021/11/09 09:12:43;;;;;;;13.32;7.20;;;11.40;78.40;;;;;;4991776;28;20407;-76
2021/11/09 09:15:12;;;;;;;14.07;7.40;;;11.60;78.50;;;;;;4992050;28;20026;-76
2021/11/09 09:17:38;;;;;;;11.25;6.68;;;11.70;77.10;;;;;;4992525;28;20040;-77
2021/11/09 09:20:37;;;;;;;11.52;7.13;;;11.60;76.40;;;;;;4991624;28;20030;-77
2021/11/09 09:23:10;;;;;;;9.50;6.13;;;11.60;77.50;;;;;;4991440;28;20403;-77
2021/11/09 09:52:37;;;;;;;9.55;5.50;;;12.80;74.30;;;;;;4994899;28;20088;-77
2021/11/09 09:57:25;;;;;;;9.27;5.60;;;13.20;76.00;;;;;;4995050;28;20026;-77
2021/11/09 09:59:52;;;;;;;11.70;6.15;;;13.60;74.50;;;;;;4978505;28;20057;-76
2021/11/09 10:02:29;;;;;;;9.98;5.90;;;13.80;72.90;;;;;;4995067;28;20058;-76
2021/11/09 10:05:00;;;;;;;11.90;5.72;;;14.00;73.90;;;;;;4994883;28;20050;-77
2021/11/09 10:07:41;;;;;;;13.25;6.20;;;15.00;74.80;;;;;;4994864;28;20026;-76
2021/11/09 10:10:09;;;;;;;12.05;5.40;;;15.60;70.70;;;;;;4994678;28;20093;-77
2021/11/09 10:12:40;;;;;;;9.85;4.78;;;16.40;70.40;;;;;;4994680;28;20486;-77
2021/11/09 10:15:18;;;;;;;13.95;4.65;;;17.00;67.60;;;;;;4975543;28;20019;-77
2021/11/09 10:17:50;;;;;;;8.43;4.25;;;17.30;65.30;;;;;;4994380;28;20042;-77
2021/11/09 10:20:25;;;;;;;8.25;4.18;;;17.70;64.30;;;;;;4988868;28;20030;-78
2021/11/09 10:23:00;;;;;;;9.25;4.30;;;17.90;63.50;;;;;;4994131;28;20030;-77
2021/11/09 10:25:28;;;;;;;7.93;3.90;;;18.30;64.40;;;;;;4994477;28;20029;-77
2021/11/09 10:28:00;;;;;;;8.00;4.03;;;18.40;62.10;;;;;;4994753;28;20023;-77
2021/11/09 10:30:30;;;;;;;8.52;3.90;;;18.80;63.10;;;;;;4976152;28;20027;-76
2021/11/09 10:32:56;;;;;;;7.15;3.88;;;19.10;61.10;;;;;;4995515;28;20394;-77
2021/11/09 10:35:25;;;;;;;9.55;3.75;;;19.10;60.70;;;;;;4991678;28;20034;-76
2021/11/09 10:37:56;;;;;;;9.13;3.97;;;19.30;59.20;;;;;;4993834;28;20046;-76
2021/11/09 10:40:26;;;;;;;7.10;4.28;;;19.40;58.00;;;;;;4976737;28;20093;-76
2021/11/09 10:42:58;;;;;;;9.60;3.70;;;19.60;58.80;;;;;;4994647;28;20026;-76
2021/11/09 10:45:26;;;;;;;7.10;3.50;;;19.80;57.90;;;;;;4994281;28;20057;-76
2021/11/09 10:47:54;;;;;;;7.90;3.35;;;20.10;57.40;;;;;;4962236;28;20023;-76
2021/11/09 10:50:24;;;;;;;6.60;3.58;;;20.00;55.60;;;;;;4993625;28;20034;-76
2021/11/09 10:53:15;;;;;;;7.30;3.40;;;19.80;55.00;;;;;;4993615;28;20041;-76
2021/11/09 11:06:21;;;;;;;7.82;3.50;;;20.30;54.80;;;;;;4993332;28;20030;-72
2021/11/09 11:08:52;;;;;;;10.68;3.28;;;20.10;52.90;;;;;;4991807;28;20041;-71
2021/11/09 11:11:24;;;;;;;7.45;3.60;;;19.80;54.60;;;;;;4993432;28;20093;-70
2021/11/09 11:13:55;;;;;;;7.57;3.23;;;19.50;55.20;;;;;;4993124;28;20098;-75
2021/11/09 11:16:25;;;;;;;7.05;3.50;;;19.50;57.00;;;;;;4990026;28;20042;-68
2021/11/09 11:18:54;;;;;;;6.35;2.88;;;19.60;56.70;;;;;;4993126;28;20058;-67
2021/11/09 11:21:22;;;;;;;7.57;3.35;;;19.60;57.20;;;;;;4991220;28;20111;-67
2021/11/09 11:23:49;;;;;;;8.38;3.22;;;19.60;56.70;;;;;;4993258;28;20098;-67
2021/11/09 11:26:16;;;;;;;7.70;2.92;;;19.60;56.20;;;;;;4987536;28;20442;-68
2021/11/09 11:28:44;;;;;;;7.13;3.30;;;19.60;56.60;;;;;;4990542;28;20062;-67
2021/11/09 11:31:10;;;;;;;10.10;2.95;;;19.50;56.40;;;;;;4991891;28;20556;-69
2021/11/09 11:33:37;;;;;;;8.98;3.42;;;19.50;56.00;;;;;;4992364;28;20092;-69
2021/11/09 11:36:03;;;;;;;7.00;2.90;;;19.70;56.10;;;;;;4991464;28;20092;-70
2021/11/09 11:38:30;;;;;;;7.95;2.80;;;19.80;55.60;;;;;;4989301;28;20042;-70
2021/11/09 11:40:58;;;;;;;9.25;3.50;;;19.90;55.60;;;;;;4991589;28;20030;-70
2021/11/09 11:43:58;;;;;;;6.38;3.08;;;20.00;55.90;;;;;;4987341;28;20049;-70
2021/11/09 11:46:32;;;;;;;8.88;3.55;;;20.00;56.70;;;;;;4932886;29;20035;-71
2021/11/09 11:48:59;;;;;;;8.23;3.17;;;20.10;54.80;;;;;;4931799;29;20098;-70
2021/11/09 11:51:28;;;;;;;8.15;2.90;;;19.80;53.30;;;;;;4931959;29;20042;-71
2021/11/09 11:53:54;;;;;;;11.00;3.60;;;19.80;53.80;;;;;;4931253;29;20020;-70
2021/11/09 11:56:44;;;;;;;8.23;2.95;;;19.80;54.00;;;;;;4931937;29;20048;-70
2021/11/09 11:59:14;;;;;;;9.02;2.83;;;19.80;54.40;;;;;;4931704;29;20492;-69
2021/11/09 12:01:44;;;;;;;8.93;3.35;;;19.90;54.50;;;;;;4932624;29;20032;-68
2021/11/09 12:04:31;;;;;;;9.23;3.28;;;19.80;54.00;;;;;;4933382;29;20163;-70
2021/11/09 12:06:56;;;;;;;9.02;3.38;;;19.90;53.10;;;;;;4933670;29;20035;-70
2021/11/09 12:09:32;;;;;;;7.88;3.65;;;19.80;53.00;;;;;;4933229;29;20035;-70
2021/11/09 12:12:16;;;;;;;7.47;3.40;;;19.70;53.90;;;;;;4932904;29;20439;-73
2021/11/09 12:15:03;;;;;;;8.07;3.15;;;19.80;55.00;;;;;;4928648;29;20042;-74
2021/11/09 12:17:38;;;;;;;10.77;3.20;;;20.00;54.60;;;;;;4931088;29;20119;-73
2021/11/09 12:20:14;;;;;;;7.07;2.97;;;19.90;54.10;;;;;;4929076;29;20134;-73
2021/11/09 12:22:47;;;;;;;10.65;3.40;;;20.00;53.70;;;;;;4976260;28;20150;-73
2021/11/09 12:25:22;;;;;;;;;;;19.90;52.10;;;;;;4990712;28;20395;-73
2021/11/09 12:27:51;;;;;;;6.53;2.72;;;20.10;56.30;;;;;;4990436;28;20337;-71
2021/11/09 12:30:38;;;;;;;8.38;2.75;;;20.90;53.90;;;;;;4991491;28;20042;-74
2021/11/09 12:33:18;;;;;;;8.32;3.15;;;21.50;55.10;;;;;;4987604;28;20030;-75
2021/11/09 12:35:48;;;;;;;8.90;2.80;;;21.30;49.00;;;;;;4990028;28;20022;-75
2021/11/09 12:38:29;;;;;;;7.32;3.05;;;21.00;51.80;;;;;;4990876;28;20082;-72
2021/11/09 12:40:57;;;;;;;7.03;2.50;;;22.10;52.60;;;;;;4982699;28;20125;-72
2021/11/09 12:43:32;;;;;;;8.65;2.72;;;23.00;51.10;;;;;;4974009;28;20058;-72
2021/11/09 12:46:13;;;;;;;8.00;2.40;;;22.90;46.10;;;;;;4978277;28;20102;-73
2021/11/09 12:48:49;;;;;;;7.82;2.63;;;23.30;50.30;;;;;;4974339;28;20077;-74
2021/11/09 12:51:17;;;;;;;8.10;2.70;;;24.80;47.60;;;;;;4989214;28;20034;-74
2021/11/09 12:53:44;;;;;;;6.28;2.35;;;24.60;41.50;;;;;;4990057;28;20022;-75
2021/11/09 12:56:22;;;;;;;10.57;3.10;;;24.10;44.20;;;;;;4989568;28;20472;-75
2021/11/09 12:58:58;;;;;;;7.55;2.60;;;24.70;43.90;;;;;;4989166;28;20110;-72
2021/11/09 13:04:16;;;;;;;6.82;2.83;;;24.20;42.70;;;;;;4991084;28;20027;-75
2021/11/09 13:09:54;;;;;;;8.25;2.45;;;23.60;41.60;;;;;;4991718;28;20108;-73
2021/11/09 13:12:26;;;;;;;7.18;2.40;;;22.50;42.70;;;;;;4991324;28;20557;-68
2021/11/09 13:14:55;;;;;;;6.90;2.30;;;21.70;43.40;;;;;;4992171;28;20026;-68
2021/11/09 13:17:23;;;;;;;6.28;2.05;;;21.10;44.70;;;;;;4991360;28;20490;-68
2021/11/09 13:20:04;;;;;;;6.97;2.30;;;20.80;46.20;;;;;;4991592;28;20505;-68
2021/11/09 13:22:30;;;;;;;7.55;2.38;;;20.60;47.90;;;;;;4993590;28;20033;-68
2021/11/09 13:25:08;;;;;;;6.93;2.55;;;20.60;47.50;;;;;;4995817;28;20026;-68
2021/11/09 13:27:45;;;;;;;5.80;2.50;;;20.50;48.60;;;;;;4981451;28;20030;-68
2021/11/09 13:30:23;;;;;;;6.57;2.25;;;20.30;48.30;;;;;;4995637;28;20130;-68
2021/11/09 13:32:52;;;;;;;6.03;2.17;;;20.20;49.30;;;;;;4995787;28;20034;-68
2021/11/09 13:35:21;;;;;;;5.68;2.30;;;20.20;49.20;;;;;;4995586;28;20029;-68
2021/11/09 13:37:47;;;;;;;6.32;2.17;;;20.10;49.60;;;;;;4983901;28;20035;-69
2021/11/09 13:40:13;;;;;;;6.30;2.08;;;20.10;49.40;;;;;;4995230;28;20043;-68
2021/11/09 13:42:40;;;;;;;5.18;2.05;;;19.70;50.00;;;;;;4995194;28;20035;-68
2021/11/09 13:45:16;;;;;;;6.28;2.58;;;19.50;50.70;;;;;;4991162;28;20379;-68
2021/11/09 13:47:43;;;;;;;6.68;2.40;;;19.10;51.10;;;;;;4995819;28;20037;-68
2021/11/09 13:50:12;;;;;;;8.85;2.70;;;19.00;52.00;;;;;;4995388;28;20026;-68
2021/11/09 13:52:50;;;;;;;5.22;2.47;;;18.90;52.40;;;;;;4995100;28;20042;-68
2021/11/09 13:55:20;;;;;;;6.68;2.40;;;18.70;52.70;;;;;;4989589;28;20514;-68
2021/11/09 13:57:47;;;;;;;6.80;1.95;;;18.50;53.20;;;;;;4994865;28;20085;-68
2021/11/09 14:00:34;;;;;;;7.45;2.10;;;18.30;53.60;;;;;;4994582;28;20046;-68
2021/11/09 14:16:37;;;;;;;5.20;1.30;;;17.70;56.20;;;;;;4994960;28;20022;-69
2021/11/09 14:19:04;;;;;;;4.63;1.42;;;17.60;56.80;;;;;;4989584;28;20028;-71
2021/11/09 14:21:48;;;;;;;5.70;1.40;;;17.60;57.30;;;;;;4993751;28;20101;-72
2021/11/09 14:24:23;;;;;;;5.57;1.55;;;17.60;57.50;;;;;;4993958;28;20117;-72
2021/11/09 14:27:13;;;;;;;6.32;2.03;;;17.60;57.80;;;;;;4994018;28;20110;-72
2021/11/09 14:29:52;;;;;;;6.40;1.67;;;17.60;57.50;;;;;;4974626;28;20061;-71
2021/11/09 14:32:21;;;;;;;4.88;1.83;;;17.60;57.20;;;;;;4991911;28;20041;-72
2021/11/09 14:35:07;;;;;;;7.03;1.75;;;17.50;57.70;;;;;;4993528;28;20030;-67
2021/11/09 14:37:43;;;;;;;5.30;1.58;;;17.50;57.30;;;;;;4992698;28;20023;-67
2021/11/09 14:40:12;;;;;;;4.35;1.55;;;17.10;57.70;;;;;;4993762;28;20058;-67
2021/11/09 14:48:18;;;;;;;5.10;1.73;;;17.10;58.90;;;;;;4992857;28;20041;-67
2021/11/09 14:56:24;;;;;;;3.25;1.23;;;17.20;59.80;;;;;;4993037;28;20038;-67
2021/11/09 14:58:50;;;;;;;4.22;1.40;;;17.20;60.00;;;;;;4991304;28;20034;-67
2021/11/09 15:01:43;;;;;;;4.03;1.48;;;17.30;60.00;;;;;;4991816;28;20026;-68
2021/11/09 15:04:13;;;;;;;4.70;1.83;;;17.30;59.70;;;;;;4992755;28;20030;-67
2021/11/09 15:25:20;;;;;;;7.72;2.05;;;17.00;60.70;;;;;;4992886;28;20053;-67
2021/11/09 15:27:57;;;;;;;6.32;1.85;;;17.00;60.50;;;;;;4992398;28;20073;-67
2021/11/09 15:30:26;;;;;;;6.47;1.85;;;16.70;60.50;;;;;;4992038;28;20042;-67
2021/11/09 15:32:52;;;;;;;5.70;1.70;;;16.70;61.00;;;;;;4993854;28;20061;-68
2021/11/09 15:35:21;;;;;;;5.38;1.73;;;16.70;61.40;;;;;;4992211;28;20097;-68
2021/11/09 15:37:53;;;;;;;5.15;1.65;;;16.60;61.40;;;;;;4990568;28;20037;-66
2021/11/09 15:40:21;;;;;;;4.60;1.60;;;16.60;62.00;;;;;;4991916;28;20054;-68
2021/11/09 15:42:48;;;;;;;5.85;1.73;;;16.70;62.30;;;;;;4991758;28;20058;-68
2021/11/09 15:45:15;;;;;;;5.90;2.03;;;16.60;61.70;;;;;;4991554;28;20022;-68
2021/11/09 15:47:40;;;;;;;4.82;1.75;;;16.60;61.90;;;;;;4975717;28;20054;-68